Aviation Digital Data Service (ADDS)

Output produced by METARs form (1308 UTC 25 September 2018)
found at http://www.aviationweather.gov/metar/data/
 
UBBB 251300Z 17018KT 9999 FEW020 25/20 Q1011 R88/D NOSIG
TAF UBBB 251110Z 2512/2612 19020G30KT 9999 SCT017 BKN100 TX27/2512Z TN17/2602Z 
     BECMG 2520/2522 14012KT 
     TEMPO 2522/2603 3000 BR SCT003 
     BECMG 2603/2605 32014KT 
     BECMG 2605/2607 35020G30KT FEW050CB BKN050 
     TEMPO 2607/2612 5000 -SHRA SCT010 SCT030CB BKN030
       
UBBG 251300Z VRB02KT 9999 FEW100 29/14 Q1011 R30/CLRD// NOSIG
TAF UBBG 251100Z 2512/2612 30008KT 9999 FEW050 SCT100 TX27/2512Z TN16/2603Z 
     TEMPO 2512/2518 VRB02KT 
     BECMG 2520/2522 27014KT